createdAt,value
2023-03-06T00:02:28.258Z,0.8
2023-03-06T00:12:28.271Z,0.7
2023-03-06T00:22:28.223Z,0.6
2023-03-06T00:32:28.271Z,0.5
2023-03-06T00:42:28.251Z,0.4
2023-03-06T00:52:28.212Z,0.3
2023-03-06T01:02:28.353Z,0.2
2023-03-06T01:12:28.209Z,0.2
2023-03-06T01:22:28.186Z,0.2
2023-03-06T01:32:28.179Z,0.2
2023-03-06T01:42:28.205Z,0.3
2023-03-06T01:52:28.149Z,-0.2
2023-03-06T02:02:28.263Z,-0.4
2023-03-06T02:12:28.176Z,-0.3
2023-03-06T02:22:28.121Z,-0.3
2023-03-06T02:32:28.193Z,-0.4
2023-03-06T02:42:28.145Z,-0.4
2023-03-06T02:52:28.115Z,-0.4
2023-03-06T03:02:28.125Z,-0.4
2023-03-06T03:12:28.131Z,-0.8
2023-03-06T03:22:28.088Z,-1
2023-03-06T03:32:28.144Z,-1.1
2023-03-06T03:42:28.111Z,-1.1
2023-03-06T03:52:28.059Z,-1.2
2023-03-06T04:02:28.087Z,-1.2
2023-03-06T04:12:28.090Z,-1.1
2023-03-06T04:22:28.034Z,-1.1
2023-03-06T04:32:28.135Z,-1.2
2023-03-06T04:42:28.068Z,-1.4
2023-03-06T04:52:28.016Z,-1.4
2023-03-06T05:02:28.221Z,-1.4
2023-03-06T05:12:28.052Z,-1.4
2023-03-06T05:22:27.992Z,-1.5
2023-03-06T05:32:28.138Z,-1.4
2023-03-06T05:42:28.664Z,-1.5
2023-03-06T05:52:28.012Z,-1.6
2023-03-06T06:02:28.091Z,-1.9
2023-03-06T06:12:28.033Z,-1.9
2023-03-06T06:22:27.974Z,-1.8
2023-03-06T06:32:28.043Z,-1.8
2023-03-06T06:42:31.410Z,-1.6
2023-03-06T06:52:28.006Z,-1.4
2023-03-06T07:02:27.930Z,-1.2
2023-03-06T07:12:27.956Z,-1
2023-03-06T07:22:30.357Z,-0.8
2023-03-06T07:32:28.043Z,-0.5
2023-03-06T07:42:27.967Z,-0.2
2023-03-06T07:52:27.908Z,0
2023-03-06T08:02:27.947Z,0.5
2023-03-06T08:12:27.971Z,0.9
2023-03-06T08:22:27.899Z,1.3
2023-03-06T08:32:27.914Z,1.8
2023-03-06T08:42:27.876Z,2.1
2023-03-06T08:52:27.831Z,2.5
2023-03-06T09:02:27.890Z,2.9
2023-03-06T09:12:29.280Z,3.4
2023-03-06T09:22:27.815Z,3.9
2023-03-06T09:32:27.883Z,4.5
2023-03-06T09:42:27.895Z,5.1
2023-03-06T09:52:27.782Z,5.6
2023-03-06T10:02:27.915Z,6.3
2023-03-06T10:12:27.771Z,8.5
2023-03-06T10:22:27.735Z,10.6
2023-03-06T10:32:32.161Z,12
2023-03-06T10:42:28.924Z,13.3
2023-03-06T10:52:27.652Z,14.5
2023-03-06T11:02:27.674Z,15.3
2023-03-06T11:12:27.678Z,15.9
2023-03-06T11:22:27.607Z,16.1
2023-03-06T11:32:27.678Z,16.7
2023-03-06T11:42:27.595Z,17.1
2023-03-06T11:52:27.545Z,18.3
2023-03-06T12:02:27.634Z,18.5
2023-03-06T12:12:27.546Z,18.8
2023-03-06T12:22:27.508Z,18.2
2023-03-06T12:32:27.515Z,18.1
2023-03-06T12:42:27.464Z,17.9
2023-03-06T12:52:30.266Z,18.9
2023-03-06T13:02:27.502Z,20
2023-03-06T13:12:27.403Z,20.8
2023-03-06T13:22:27.347Z,21.2
2023-03-06T13:32:27.373Z,21.6
2023-03-06T13:42:27.373Z,21.9
2023-03-06T13:52:27.292Z,22.1
2023-03-06T14:02:27.325Z,21.7
2023-03-06T14:12:27.288Z,21.7
2023-03-06T14:22:27.210Z,21.7
2023-03-06T14:32:27.290Z,21.7
2023-03-06T14:42:27.231Z,21.3
2023-03-06T14:52:27.169Z,21
2023-03-06T15:02:27.196Z,21.1
2023-03-06T15:12:27.159Z,20.3
2023-03-06T15:22:27.088Z,19.7
2023-03-06T15:32:27.195Z,18.9
2023-03-06T15:42:27.096Z,18.4
2023-03-06T15:52:27.039Z,17.9
2023-03-06T16:02:27.043Z,17.3
2023-03-06T16:12:27.038Z,16.7
2023-03-06T16:22:26.965Z,16.1
2023-03-06T16:32:28.757Z,15.6
2023-03-06T16:42:26.968Z,15.1
2023-03-06T16:52:26.932Z,15
2023-03-06T17:02:26.959Z,14.4
2023-03-06T17:12:26.934Z,13.4
2023-03-06T17:22:26.860Z,12.5
2023-03-06T17:32:27.044Z,11.8
2023-03-06T17:42:26.895Z,11.1
2023-03-06T17:52:26.805Z,10.5
2023-03-06T18:02:26.840Z,10.1
2023-03-06T18:12:26.824Z,9.6
2023-03-06T18:22:26.767Z,9.2
2023-03-06T18:32:26.828Z,8.8
2023-03-06T18:42:26.770Z,8.4
2023-03-06T18:52:26.712Z,8.2
2023-03-06T19:02:26.719Z,8
2023-03-06T19:12:26.780Z,7.7
2023-03-06T19:22:26.665Z,7.3
2023-03-06T19:32:26.756Z,7
2023-03-06T19:42:26.673Z,6.7
2023-03-06T19:52:26.632Z,6.4
2023-03-06T20:02:26.685Z,6.1
2023-03-06T20:12:26.654Z,5.7
2023-03-06T20:22:26.572Z,5.5
2023-03-06T20:32:26.651Z,5
2023-03-06T20:42:26.600Z,4.8
2023-03-06T20:52:26.533Z,4.4
2023-03-06T21:02:26.615Z,4.3
2023-03-06T21:12:26.562Z,4
2023-03-06T21:22:26.514Z,3.9
2023-03-06T21:32:26.560Z,4.1
2023-03-06T21:42:26.514Z,4.1
2023-03-06T21:52:26.660Z,4.2
2023-03-06T22:02:26.487Z,4.3
2023-03-06T22:12:26.481Z,4
2023-03-06T22:22:26.450Z,3.8
2023-03-06T22:32:26.537Z,3.6
2023-03-06T22:42:26.417Z,3.4
2023-03-06T22:52:26.391Z,3.2
2023-03-06T23:02:26.439Z,3
2023-03-06T23:12:26.441Z,2.7
2023-03-06T23:22:26.359Z,2.4
2023-03-06T23:32:26.437Z,2.2
2023-03-06T23:42:26.385Z,2
2023-03-06T23:52:26.335Z,1.6
